Latest Weather Observations for Dunalley

IDT60801

Issued at 11:35 pm EST Thursday 18 September 2014 (issued every 30 minutes, with the page automatically refreshed every 10 minutes)

About weather observations | Map of weather stations | Latest weather observations for TAS | Other Formats
Station Details ID: 094254 Name: DUNALLEY (STROUD POINT) Lat: -42.90 Lon: 147.79 Height: 12.43 m
Data from the previous 72 hours. | See also: Recent months at Dunalley
Date/Time
EST
Temp
°C
App
Temp
°C
Dew
Point
Rel
Hum
%
Delta-T
°C
Wind Press
QNH
hPa
Press
MSL
hPa
Rain
since 9 am
mm
Dir
 
Spd
km/h
Gust
km/h
Spd
kts
Gust
kts
18/11:30pm 9.5 5.3 3.9 68 2.5 W 15 22 8 12 1013.5 1013.5 1.4
18/11:00pm 10.1 2.4 5.5 73 2.1 W 35 43 19 23 1013.8 1013.8 1.4
18/10:30pm 10.2 2.4 5.0 70 2.3 W 35 41 19 22 1014.1 1014.1 1.4
18/10:00pm 10.0 2.0 5.6 74 2.0 WSW 37 44 20 24 1014.3 1014.3 1.4
18/09:30pm 9.9 1.8 5.1 72 2.2 W 37 44 20 24 1014.6 1014.6 1.4
18/09:00pm 10.0 2.6 4.8 70 2.3 W 33 43 18 23 1015.0 1015.0 1.4
18/08:30pm 10.0 2.7 5.4 73 2.1 W 33 39 18 21 1015.1 1015.1 1.4
18/08:00pm 9.7 2.4 5.3 74 2.0 W 33 39 18 21 1015.1 1015.1 1.4
18/07:30pm 9.4 4.3 5.9 79 1.6 W 22 30 12 16 1015.2 1015.2 1.4
18/07:00pm 9.3 3.8 5.9 79 1.6 W 24 30 13 16 1015.1 1015.1 1.4
18/06:30pm 10.0 3.0 6.7 80 1.5 SW 33 39 18 21 1015.0 1015.0 1.4
18/06:00pm 10.1 3.1 6.8 80 1.6 SW 33 41 18 22 1014.8 1014.8 1.4
18/05:30pm 9.7 3.7 7.1 84 1.2 WSW 28 33 15 18 1014.5 1014.5 1.4
18/05:00pm 9.4 2.5 7.3 87 1.0 SW 33 39 18 21 1014.4 1014.4 1.4
18/04:30pm 9.4 4.0 6.5 82 1.3 WSW 24 32 13 17 1014.1 1014.1 1.4
18/04:00pm 9.6 2.4 6.0 78 1.7 WSW 33 41 18 22 1013.9 1013.9 1.4
18/03:30pm 9.6 1.3 6.0 78 1.7 W 39 48 21 26 1013.8 1013.8 1.4
18/03:00pm 9.8 2.8 6.7 81 1.5 WSW 33 43 18 23 1013.8 1013.8 1.4
18/02:30pm 9.4 1.6 6.8 84 1.2 WSW 37 44 20 24 1013.9 1013.9 1.4
18/02:00pm 8.6 1.8 6.7 88 0.9 SW 32 39 17 21 1013.9 1013.9 1.4
18/01:30pm 9.1 1.4 5.5 78 1.6 SSW 35 39 19 21 1013.4 1013.4 0.6
18/01:02pm 10.5 1.1 5.5 71 2.3 WSW 44 67 24 36 1013.1 1013.1 0.6
18/01:00pm 10.7 1.4 4.8 67 2.7 WSW 43 50 23 27 1013.1 1013.1 0.6
18/12:30pm 12.1 5.7 5.3 63 3.1 WSW 28 33 15 18 1013.5 1013.5 0.6
18/12:00pm 11.6 4.9 5.5 66 2.8 WSW 30 37 16 20 1014.1 1014.1 0.6
18/11:30am 10.8 3.3 4.7 66 2.8 SW 33 41 18 22 1014.5 1014.5 0.6
18/11:00am 10.7 4.0 5.7 71 2.3 WSW 30 37 16 20 1014.9 1014.9 0.6
18/10:30am 9.4 2.4 5.9 79 1.6 WSW 32 44 17 24 1015.2 1015.2 0.6
18/10:00am 8.8 0.9 6.1 83 1.2 WSW 37 43 20 23 1015.1 1015.1 0.6
18/09:39am 8.6 -0.5 5.7 82 1.3 WSW 43 65 23 35 1015.1 1015.1 0.0
18/09:30am 9.5 0.5 6.2 80 1.5 WSW 43 50 23 27 1014.8 1014.8 0.0
18/09:00am 8.9 0.2 5.8 81 1.4 WSW 41 48 22 26 1014.8 1014.8 8.4
18/08:30am 8.1 -1.6 5.7 85 1.1 WSW 46 56 25 30 1014.5 1014.5 8.4
18/08:00am 8.2 -0.6 5.7 84 1.1 WSW 41 48 22 26 1014.3 1014.3 8.4
18/07:30am 8.0 -1.2 5.5 84 1.1 WSW 43 50 23 27 1014.0 1014.0 8.4
18/07:00am 8.0 -0.6 6.5 90 0.7 WSW 41 48 22 26 1013.6 1013.6 8.4
18/06:30am 7.8 -0.5 5.9 88 0.9 WSW 39 46 21 25 1013.1 1013.1 8.4
18/06:00am 7.8 -1.8 6.1 89 0.8 WSW 46 59 25 32 1012.4 1012.4 8.0
18/05:30am 8.1 -1.9 6.2 88 0.9 SW 48 65 26 35 1012.3 1012.3 7.8
18/05:00am 8.0 -1.4 5.5 84 1.1 WSW 44 54 24 29 1011.6 1011.6 7.8
18/04:30am 8.0 -0.5 5.1 82 1.3 W 39 48 21 26 1011.4 1011.4 7.6
18/04:00am 7.9 -0.9 5.7 86 1.0 W 41 54 22 29 1011.3 1011.3 7.6
18/03:30am 8.5 -0.2 5.8 83 1.2 WSW 41 50 22 27 1010.9 1010.9 7.4
18/03:00am 8.3 0.3 5.9 85 1.1 WSW 37 44 20 24 1010.6 1010.6 7.4
18/02:30am 8.8 -0.8 6.4 85 1.1 WSW 46 56 25 30 1010.0 1010.0 7.2
18/02:00am 7.7 -1.0 6.2 90 0.7 W 41 48 22 26 1009.9 1009.9 7.2
18/01:51am 8.4 -0.7 6.7 89 0.8 W 44 48 24 26 1009.9 1009.9 7.2
18/01:40am 8.6 -1.0 6.2 85 1.1 SW 46 52 25 28 1009.6 1009.6 7.2
18/01:37am 8.4 -0.4 7.2 92 0.6 WSW 43 61 23 33 1009.4 1009.4 7.2
18/01:30am 7.8 -0.7 7.1 95 0.3 W 41 52 22 28 1009.5 1009.5 7.0
18/01:00am 7.6 -1.5 6.9 95 0.3 W 44 54 24 29 1009.2 1009.2 6.8
18/12:30am 7.0 -2.6 6.1 94 0.4 W 46 57 25 31 1008.8 1008.8 4.6
18/12:00am 7.1 -3.5 5.3 88 0.8 W 50 61 27 33 1008.3 1008.3 4.0
 
Date/Time
EST
Temp
°C
App
Temp
°C
Dew
Point
Rel
Hum
%
Delta-T
°C
Wind Press
QNH
hPa
Press
MSL
hPa
Rain
since 9 am
mm
Dir
 
Spd
km/h
Gust
km/h
Spd
kts
Gust
kts
17/11:30pm 7.9 -1.4 5.0 82 1.3 W 43 50 23 27 1008.0 1008.0 4.0
17/11:00pm 7.9 -2.2 3.8 75 1.8 W 46 54 25 29 1007.6 1007.6 4.0
17/10:30pm 7.7 -3.6 3.2 73 1.9 W 52 61 28 33 1007.2 1007.2 4.0
17/10:00pm 8.0 -3.0 3.1 71 2.1 W 50 59 27 32 1007.0 1007.0 4.0
17/09:30pm 8.3 -2.5 2.1 65 2.6 W 48 59 26 32 1006.7 1006.7 4.0
17/09:00pm 8.2 -2.2 2.0 65 2.6 W 46 54 25 29 1006.5 1006.5 4.0
17/08:30pm 8.2 -2.1 2.9 69 2.2 W 46 54 25 29 1006.2 1006.2 4.0
17/08:00pm 8.4 -1.3 2.6 67 2.4 W 43 54 23 29 1006.1 1006.1 4.0
17/07:30pm 9.1 -2.4 2.4 63 2.8 WSW 52 61 28 33 1005.6 1005.6 4.0
17/07:00pm 9.1 -1.2 2.7 64 2.7 WSW 46 54 25 29 1005.3 1005.3 4.0
17/06:30pm 9.0 -1.2 3.4 68 2.4 SW 46 69 25 37 1005.1 1005.1 4.0
17/06:29pm 9.1 -1.4 3.9 70 2.3 SW 48 69 26 37 1005.2 1005.2 4.0
17/06:00pm 9.4 -0.8 3.4 66 2.6 WSW 46 54 25 29 1004.7 1004.7 4.0
17/05:30pm 9.6 -1.5 2.5 61 3.0 SW 50 61 27 33 1004.2 1004.2 4.0
17/05:00pm 9.7 -0.5 3.4 65 2.7 WSW 46 59 25 32 1003.9 1003.9 4.0
17/04:30pm 9.7 -1.9 3.9 67 2.5 SW 54 65 29 35 1003.4 1003.4 4.0
17/04:00pm 9.5 0.1 5.3 75 1.9 SW 44 65 24 35 1002.9 1002.9 4.0
17/03:30pm 9.8 0.3 4.8 71 2.2 WSW 44 56 24 30 1002.3 1002.3 4.0
17/03:00pm 9.4 1.2 4.8 73 2.1 SW 37 48 20 26 1002.4 1002.4 4.0
17/02:30pm 8.8 1.0 4.8 76 1.8 WSW 35 44 19 24 1002.6 1002.6 4.0
17/02:00pm 8.6 1.3 4.6 76 1.8 WSW 32 39 17 21 1002.4 1002.4 4.0
17/01:30pm 8.3 0.9 5.1 80 1.4 WSW 33 43 18 23 1002.7 1002.7 3.8
17/01:00pm 7.8 1.0 5.3 84 1.1 SW 30 35 16 19 1002.9 1002.9 3.8
17/12:30pm 7.3 -2.5 5.4 88 0.8 WSW 46 57 25 31 1003.1 1003.1 3.4
17/12:09pm 8.3 1.6 7.2 93 0.5 WSW 32 63 17 34 1002.7 1002.7 2.6
17/12:00pm 8.3 2.0 7.5 95 0.4 WSW 30 37 16 20 1002.9 1002.9 2.2
17/11:30am 10.3 6.0 5.3 71 2.3 WSW 17 46 9 25 1002.7 1002.7 0.0
17/11:00am 12.5 8.8 6.3 66 3.0 WSW 15 19 8 10 1002.3 1002.3 0.0
17/10:30am 13.2 8.7 5.9 61 3.4 WSW 19 22 10 12 1002.6 1002.6 0.0
17/10:00am 12.4 7.8 5.8 64 3.1 W 19 26 10 14 1002.9 1002.9 0.0
17/09:30am 10.5 6.4 4.6 67 2.6 W 15 19 8 10 1003.2 1003.2 0.0
17/09:00am 10.5 7.7 5.3 70 2.4 NW 9 15 5 8 1003.5 1003.5 -
17/08:30am 10.0 7.6 5.4 73 2.1 NNW 7 9 4 5 1003.9 1003.9 -
17/08:00am 9.9 7.7 5.1 72 2.2 NNW 6 7 3 4 1004.0 1004.0 -
17/07:30am 9.7 7.5 5.1 73 2.1 NNW 6 6 3 3 1004.2 1004.2 -
17/07:00am 9.3 6.6 5.5 77 1.7 NNW 9 11 5 6 1004.4 1004.4 -
17/06:30am 8.7 6.7 4.3 74 1.9 NNW 4 7 2 4 1004.5 1004.5 -
17/06:00am 8.7 4.6 4.5 75 1.9 NNE 15 20 8 11 1004.5 1004.5 -
17/05:30am 7.3 4.3 4.3 81 1.3 NE 9 11 5 6 1004.8 1004.8 -
17/05:00am 6.8 4.3 4.6 86 1.0 NE 7 9 4 5 1005.3 1005.3 -
17/04:30am 6.8 4.4 4.3 84 1.1 ENE 6 7 3 4 1005.5 1005.5 -
17/04:00am 8.3 6.6 5.8 84 1.1 ENE 4 7 2 4 1005.6 1005.6 -
17/03:30am 7.7 6.4 5.8 88 0.9 ENE 2 4 1 2 1006.0 1006.0 -
17/03:00am 7.7 6.9 6.6 93 0.5 CALM 0 0 0 0 1006.2 1006.2 0.0
17/02:30am 7.9 6.8 6.8 93 0.5 ENE 2 4 1 2 1006.6 1006.6 -
17/02:00am 8.0 6.2 7.1 94 0.4 ENE 6 6 3 3 1006.9 1006.9 -
17/01:30am 7.9 6.3 6.5 91 0.6 ENE 4 6 2 3 1007.4 1007.4 -
17/01:00am 8.1 6.6 6.9 92 0.6 ENE 4 6 2 3 1007.6 1007.6 -
17/12:30am 7.4 5.2 6.0 91 0.6 ENE 7 9 4 5 1007.6 1007.6 -
17/12:00am 7.8 5.8 6.3 90 0.7 ENE 6 7 3 4 1007.6 1007.6 -
 
Date/Time
EST
Temp
°C
App
Temp
°C
Dew
Point
Rel
Hum
%
Delta-T
°C
Wind Press
QNH
hPa
Press
MSL
hPa
Rain
since 9 am
mm
Dir
 
Spd
km/h
Gust
km/h
Spd
kts
Gust
kts
16/11:30pm 7.2 4.8 5.2 87 0.9 ENE 7 9 4 5 1007.8 1007.8 -
16/11:00pm 7.1 6.1 5.4 89 0.8 CALM 0 0 0 0 1008.1 1008.1 -
16/10:30pm 8.5 6.8 5.8 83 1.2 ENE 4 6 2 3 1008.3 1008.3 -
16/10:00pm 8.7 7.7 5.8 82 1.3 CALM 0 4 0 2 1008.4 1008.4 -
16/09:30pm 10.0 7.0 7.8 86 1.1 ENE 13 19 7 10 1008.6 1008.6 -
16/09:00pm 9.4 6.0 7.7 89 0.8 NE 15 17 8 9 1008.7 1008.7 -
16/08:30pm 9.3 5.8 7.3 87 0.9 NE 15 17 8 9 1008.8 1008.8 -
16/08:00pm 9.8 6.0 7.4 85 1.1 NE 17 19 9 10 1008.8 1008.8 -
16/07:30pm 10.2 6.3 7.3 82 1.4 NE 17 19 9 10 1008.8 1008.8 -
16/07:00pm 10.6 6.7 7.3 80 1.6 NE 17 20 9 11 1008.8 1008.8 -
16/06:30pm 10.9 7.4 7.4 79 1.7 NE 15 19 8 10 1008.9 1008.9 -
16/06:00pm 11.4 6.9 7.1 75 2.1 NE 20 24 11 13 1008.9 1008.9 -
16/05:30pm 11.8 7.0 7.3 74 2.2 NE 22 26 12 14 1008.8 1008.8 -
16/05:00pm 12.0 6.8 7.3 73 2.3 NE 24 30 13 16 1008.8 1008.8 -
16/04:30pm 12.3 6.7 7.2 71 2.5 NE 26 32 14 17 1008.7 1008.7 -
16/04:00pm 12.4 6.5 7.3 71 2.5 NE 28 35 15 19 1008.8 1008.8 -
16/03:30pm 12.9 7.4 7.6 70 2.6 NE 26 32 14 17 1008.8 1008.8 -
16/03:00pm 12.9 - 7.4 69 2.7 - - - - - 1008.9 1008.9 -
16/02:30pm 13.2 7.3 5.9 61 3.4 NE 26 32 14 17 1009.1 1009.1 0.0
16/02:00pm 13.5 7.6 5.9 60 3.6 NE 26 32 14 17 1009.3 1009.3 0.0
16/01:30pm 13.1 7.2 5.8 61 3.4 NE 26 32 14 17 1009.4 1009.4 0.0
16/01:00pm 13.1 7.4 6.5 64 3.2 NE 26 33 14 18 1009.7 1009.7 0.0
16/12:30pm 13.3 8.7 6.6 64 3.2 ENE 20 28 11 15 1010.5 1010.5 0.0
16/12:00pm 13.2 8.7 6.8 65 3.1 ENE 20 28 11 15 1011.1 1011.1 0.0
16/11:30am 12.7 7.8 6.7 67 2.9 ENE 22 28 12 15 1011.4 1011.4 0.0
16/11:00am 12.7 8.2 6.1 64 3.1 ENE 19 26 10 14 1011.8 1011.8 0.0
16/10:30am 11.3 9.6 5.8 69 2.6 SSE 4 6 2 3 1012.5 1012.5 0.0
16/10:00am 10.3 8.2 5.7 73 2.1 SSE 6 7 3 4 1012.8 1012.8 0.0
16/09:30am 10.2 8.0 5.4 72 2.2 SSE 6 6 3 3 1013.1 1013.1 0.0
16/09:00am 9.5 7.3 5.5 76 1.8 SSE 6 7 3 4 1013.3 1013.3 0.0
16/08:30am 9.1 7.4 5.8 80 1.5 SSE 4 4 2 2 1013.6 1013.6 0.0
16/08:00am 8.0 7.0 5.5 84 1.1 CALM 0 2 0 1 1013.7 1013.7 0.0
16/07:30am 6.5 5.2 4.3 86 0.9 CALM 0 0 0 0 1013.6 1013.6 0.0
16/07:00am 5.8 4.2 4.3 90 0.6 SSE 2 4 1 2 1013.7 1013.7 0.0
16/06:30am 5.7 3.9 3.2 84 1.0 SSE 2 7 1 4 1013.6 1013.6 0.0
16/06:00am 6.2 4.1 3.9 85 1.0 SSE 4 4 2 2 1013.4 1013.4 0.0
16/05:30am 6.3 5.1 4.8 90 0.7 CALM 0 0 0 0 1013.4 1013.4 0.0
16/05:00am 6.4 5.3 5.0 91 0.6 CALM 0 0 0 0 1013.5 1013.5 0.0
16/04:30am 6.4 5.3 5.0 91 0.6 CALM 0 0 0 0 1013.5 1013.5 0.0
16/04:00am 5.5 3.4 3.8 89 0.7 SSE 4 7 2 4 1013.4 1013.4 0.0
16/03:30am 6.5 4.1 5.1 91 0.6 SSE 7 9 4 5 1013.4 1013.4 0.0
16/03:00am 6.0 4.1 5.0 93 0.4 SSE 4 6 2 3 1013.6 1013.6 0.0
16/02:30am 5.8 3.4 4.4 91 0.6 SSE 6 7 3 4 1014.0 1014.0 0.0
16/02:00am 6.6 4.2 5.2 91 0.6 SSE 7 9 4 5 1014.3 1014.3 0.0
16/01:30am 6.7 4.5 5.3 91 0.6 SSE 6 7 3 4 1014.8 1014.8 0.0
16/01:00am 6.6 4.7 4.9 89 0.7 SSE 4 7 2 4 1015.2 1015.2 0.0
16/12:30am 6.2 3.9 4.7 90 0.6 SSE 6 7 3 4 1015.4 1015.4 0.0
16/12:00am 5.9 3.5 4.2 89 0.7 SSE 6 6 3 3 1015.6 1015.6 0.0

Other Formats:

Comma delimited format used in spreadsheet applications
http://www.bom.gov.au/fwo/IDT60801/IDT60801.94951.axf

JavaScript Object Notation format (JSON) in row-major order
http://www.bom.gov.au/fwo/IDT60801/IDT60801.94951.json